Time;durP1;ratioP1;P1;durP2;ratioP2;P2;SDS_P1;SDS_P2;PMS_P1;PMS_P2;Temp;Humidity;BMP_temperature;BMP_pressure;BME280_temperature;BME280_humidity;BME280_pressure;Samples;Min_cycle;Max_cycle;Signal;HPM_P1;HPM_P2
2020/12/01 00:02:44;;;;;;;11.83;1.90;;;;;;;;;;10308244;28;20217;-68
2020/12/01 00:07:46;;;;;;;18.53;2.70;;;;;;;;;;10315789;28;20206;-68
2020/12/01 00:12:50;;;;;;;25.10;2.90;;;;;;;;;;10306451;28;20209;-68
2020/12/01 00:17:52;;;;;;;35.27;3.70;;;;;;;;;;10309288;28;20233;-69
2020/12/01 00:22:54;;;;;;;30.97;3.23;;;;;;;;;;10308889;28;20308;-67
2020/12/01 00:27:57;;;;;;;29.60;4.30;;;;;;;;;;10309123;28;20628;-68
2020/12/01 00:32:58;;;;;;;32.47;3.47;;;;;;;;;;10316565;28;20237;-67
2020/12/01 00:38:00;;;;;;;42.57;3.87;;;;;;;;;;10313614;28;20246;-69
2020/12/01 00:43:03;;;;;;;37.70;3.93;;;;;;;;;;10310390;28;20213;-68
2020/12/01 00:48:05;;;;;;;37.63;4.07;;;;;;;;;;10310174;28;20206;-68
2020/12/01 00:53:07;;;;;;;27.77;3.10;;;;;;;;;;10316760;28;20670;-68
2020/12/01 00:58:09;;;;;;;33.93;4.23;;;;;;;;;;10310296;28;20237;-68
2020/12/01 01:03:11;;;;;;;25.67;3.17;;;;;;;;;;10315513;28;20241;-68
2020/12/01 01:08:13;;;;;;;28.97;3.97;;;;;;;;;;10316447;28;20267;-68
2020/12/01 01:13:22;;;;;;;28.67;3.20;;;;;;;;;;10314902;28;20266;-68
2020/12/01 01:18:24;;;;;;;31.93;3.53;;;;;;;;;;10317149;28;20260;-68
2020/12/01 01:23:26;;;;;;;37.87;3.43;;;;;;;;;;10315908;28;20653;-68
2020/12/01 01:28:28;;;;;;;32.63;4.07;;;;;;;;;;10310270;28;20226;-66
2020/12/01 01:33:30;;;;;;;37.40;3.40;;;;;;;;;;10316835;28;20692;-67
2020/12/01 01:38:32;;;;;;;33.47;3.73;;;;;;;;;;10280793;28;20254;-67
2020/12/01 01:43:35;;;;;;;35.00;3.20;;;;;;;;;;10264341;28;20214;-67
2020/12/01 01:48:37;;;;;;;39.10;3.43;;;;;;;;;;10274577;28;20214;-67
2020/12/01 01:53:40;;;;;;;42.43;3.83;;;;;;;;;;10269992;28;20214;-67
2020/12/01 01:58:44;;;;;;;38.10;3.70;;;;;;;;;;10272816;28;20246;-68
2020/12/01 02:03:47;;;;;;;27.73;3.13;;;;;;;;;;10265451;28;20847;-67
2020/12/01 02:08:51;;;;;;;32.40;3.20;;;;;;;;;;10272886;28;20218;-67
2020/12/01 02:13:58;;;;;;;28.33;3.63;;;;;;;;;;10269997;28;20564;-67
2020/12/01 02:18:59;;;;;;;34.97;3.70;;;;;;;;;;10266505;28;20238;-67
2020/12/01 02:24:03;;;;;;;28.27;3.07;;;;;;;;;;10274557;28;20210;-68
2020/12/01 02:29:07;;;;;;;28.67;2.63;;;;;;;;;;10276828;28;20217;-67
2020/12/01 02:34:11;;;;;;;16.33;2.50;;;;;;;;;;10272213;28;20230;-67
2020/12/01 02:39:13;;;;;;;22.37;2.40;;;;;;;;;;10300409;28;20248;-67
2020/12/01 02:44:16;;;;;;;14.53;2.50;;;;;;;;;;10306393;28;20678;-67
2020/12/01 02:49:18;;;;;;;23.40;2.73;;;;;;;;;;10312178;28;20221;-67
2020/12/01 02:54:20;;;;;;;23.73;3.20;;;;;;;;;;10310159;28;20221;-68
2020/12/01 02:59:23;;;;;;;29.50;3.40;;;;;;;;;;10305691;28;20703;-67
2020/12/01 03:04:24;;;;;;;18.03;2.67;;;;;;;;;;10315021;28;20206;-66
2020/12/01 03:09:26;;;;;;;22.57;2.30;;;;;;;;;;10307673;28;20236;-67
2020/12/01 03:14:29;;;;;;;22.03;2.57;;;;;;;;;;10316545;28;20689;-67
2020/12/01 03:19:31;;;;;;;19.10;2.13;;;;;;;;;;10315498;28;20230;-67
2020/12/01 03:24:33;;;;;;;19.80;2.63;;;;;;;;;;10322002;28;20209;-68
2020/12/01 03:29:36;;;;;;;17.93;2.53;;;;;;;;;;10320768;28;20205;-67
2020/12/01 03:34:37;;;;;;;19.93;2.40;;;;;;;;;;10318236;28;20702;-67
2020/12/01 03:39:40;;;;;;;13.47;2.10;;;;;;;;;;10313427;28;20241;-67
2020/12/01 03:44:43;;;;;;;17.90;2.37;;;;;;;;;;10316611;28;20334;-67
2020/12/01 03:49:45;;;;;;;23.27;2.03;;;;;;;;;;10315848;28;20840;-67
2020/12/01 03:54:47;;;;;;;22.17;1.80;;;;;;;;;;10314417;28;20214;-67
2020/12/01 03:59:49;;;;;;;17.27;2.00;;;;;;;;;;10314115;28;20268;-67
2020/12/01 04:04:51;;;;;;;20.50;2.40;;;;;;;;;;10316190;28;21846;-67
2020/12/01 04:09:53;;;;;;;14.40;2.53;;;;;;;;;;10313441;28;20306;-67
2020/12/01 04:14:56;;;;;;;17.77;2.33;;;;;;;;;;10319284;28;20214;-67
2020/12/01 04:19:58;;;;;;;10.27;2.23;;;;;;;;;;10313721;28;20241;-67
2020/12/01 04:25:00;;;;;;;17.20;3.17;;;;;;;;;;10315938;28;20613;-67
2020/12/01 04:30:03;;;;;;;19.43;3.40;;;;;;;;;;10314476;28;20590;-67
2020/12/01 04:35:06;;;;;;;14.10;3.47;;;;;;;;;;10320062;28;20226;-67
2020/12/01 04:40:09;;;;;;;23.47;3.77;;;;;;;;;;10273677;28;20252;-67
2020/12/01 04:45:12;;;;;;;16.03;3.67;;;;;;;;;;10277104;28;20423;-67
2020/12/01 04:50:20;;;;;;;9.87;2.63;;;;;;;;;;10273933;28;20239;-68
2020/12/01 04:55:41;;;;;;;6.67;2.33;;;;;;;;;;10277532;28;20214;-66
2020/12/01 05:00:48;;;;;;;3.83;1.60;;;;;;;;;;10272380;28;20241;-68
2020/12/01 05:05:58;;;;;;;6.43;1.50;;;;;;;;;;10272611;28;20244;-67
2020/12/01 05:11:02;;;;;;;23.77;2.50;;;;;;;;;;10275649;28;20223;-67
2020/12/01 05:16:22;;;;;;;20.20;2.87;;;;;;;;;;10272744;28;20222;-68
2020/12/01 05:21:25;;;;;;;19.10;2.43;;;;;;;;;;10272552;28;20661;-67
2020/12/01 05:26:37;;;;;;;17.67;2.10;;;;;;;;;;10269019;28;20633;-68
2020/12/01 05:31:40;;;;;;;24.07;2.40;;;;;;;;;;10272943;28;20234;-68
2020/12/01 05:36:43;;;;;;;18.43;3.13;;;;;;;;;;10282709;28;20245;-68
2020/12/01 05:41:47;;;;;;;15.50;2.47;;;;;;;;;;10310956;28;20209;-68
2020/12/01 05:46:51;;;;;;;24.03;2.83;;;;;;;;;;10311882;28;20206;-69
2020/12/01 05:51:55;;;;;;;23.13;2.90;;;;;;;;;;10311030;28;20210;-68
2020/12/01 05:56:57;;;;;;;28.43;3.17;;;;;;;;;;10315804;28;20788;-67
2020/12/01 06:02:03;;;;;;;27.17;2.57;;;;;;;;;;10307127;28;20214;-69
2020/12/01 06:07:15;;;;;;;14.00;2.13;;;;;;;;;;10314301;28;20301;-68
2020/12/01 06:12:20;;;;;;;17.00;2.77;;;;;;;;;;10309945;28;20217;-69
2020/12/01 06:17:24;;;;;;;19.57;4.10;;;;;;;;;;10312807;28;20234;-69
2020/12/01 06:22:43;;;;;;;14.47;2.07;;;;;;;;;;10298867;28;20586;-69
2020/12/01 06:28:02;;;;;;;23.47;2.90;;;;;;;;;;10306266;28;20218;-69
2020/12/01 06:33:22;;;;;;;32.80;4.10;;;;;;;;;;10308581;28;20299;-69
2020/12/01 06:38:34;;;;;;;47.43;6.40;;;;;;;;;;10308450;28;20264;-69
2020/12/01 06:43:41;;;;;;;54.10;4.73;;;;;;;;;;10313462;28;20260;-69
2020/12/01 06:48:45;;;;;;;48.60;6.00;;;;;;;;;;10311452;28;20272;-69
2020/12/01 06:53:47;;;;;;;56.00;4.90;;;;;;;;;;10307120;28;20217;-68
2020/12/01 06:58:50;;;;;;;43.07;4.50;;;;;;;;;;10310177;28;20681;-69
2020/12/01 07:04:03;;;;;;;63.03;5.73;;;;;;;;;;10311233;28;20589;-69
2020/12/01 07:09:06;;;;;;;45.10;5.30;;;;;;;;;;10314401;28;20221;-70
2020/12/01 07:14:16;;;;;;;64.00;6.07;;;;;;;;;;10308395;28;20689;-69
2020/12/01 07:19:20;;;;;;;42.33;5.07;;;;;;;;;;10310968;28;20271;-69
2020/12/01 07:24:31;;;;;;;50.40;4.73;;;;;;;;;;10302000;28;20209;-69
2020/12/01 07:29:42;;;;;;;52.57;5.63;;;;;;;;;;10308855;28;20210;-68
2020/12/01 07:34:44;;;;;;;50.27;6.13;;;;;;;;;;10307710;28;20225;-68
2020/12/01 07:39:52;;;;;;;56.73;5.37;;;;;;;;;;10309620;28;20245;-70
2020/12/01 07:44:56;;;;;;;49.93;5.67;;;;;;;;;;10309239;28;20619;-69
2020/12/01 07:49:59;;;;;;;47.77;4.37;;;;;;;;;;10313162;28;20222;-69
2020/12/01 07:55:03;;;;;;;48.90;5.13;;;;;;;;;;10306574;28;20773;-69
2020/12/01 08:00:06;;;;;;;52.30;5.27;;;;;;;;;;10312387;28;20597;-69
2020/12/01 08:05:11;;;;;;;53.20;5.67;;;;;;;;;;10313797;28;20244;-69
2020/12/01 08:10:14;;;;;;;57.30;5.33;;;;;;;;;;10314530;28;20221;-72
2020/12/01 08:15:18;;;;;;;45.63;5.37;;;;;;;;;;10313846;28;20233;-68
2020/12/01 08:20:24;;;;;;;56.53;6.63;;;;;;;;;;10319537;28;20426;-68
2020/12/01 08:25:27;;;;;;;39.57;4.60;;;;;;;;;;10312714;28;20210;-69
2020/12/01 08:30:36;;;;;;;60.93;5.90;;;;;;;;;;10312348;28;20233;-69
2020/12/01 08:35:42;;;;;;;45.33;4.67;;;;;;;;;;10316950;28;20205;-68
2020/12/01 08:40:46;;;;;;;63.10;7.73;;;;;;;;;;10315648;28;21094;-68
2020/12/01 08:45:53;;;;;;;66.37;6.60;;;;;;;;;;10319532;28;20209;-68
2020/12/01 08:50:59;;;;;;;53.57;5.80;;;;;;;;;;10310958;28;20236;-67
2020/12/01 08:56:01;;;;;;;57.40;7.00;;;;;;;;;;10310952;28;20217;-67
2020/12/01 09:01:06;;;;;;;52.40;6.20;;;;;;;;;;10314666;28;20237;-67
2020/12/01 09:06:22;;;;;;;42.50;5.13;;;;;;;;;;10315224;28;20213;-68
2020/12/01 09:16:57;;;;;;;48.50;5.37;;;;;;;;;;10305702;28;20205;-68
2020/12/01 09:22:06;;;;;;;31.73;4.83;;;;;;;;;;10312240;28;20246;-69
2020/12/01 09:27:10;;;;;;;40.30;4.77;;;;;;;;;;10310113;28;20218;-69
2020/12/01 09:32:15;;;;;;;47.07;5.70;;;;;;;;;;10305633;28;20246;-70
2020/12/01 09:37:18;;;;;;;41.83;4.93;;;;;;;;;;10313011;28;20230;-68
2020/12/01 09:42:26;;;;;;;46.90;4.47;;;;;;;;;;10305572;28;20213;-67
2020/12/01 09:47:36;;;;;;;41.53;5.20;;;;;;;;;;10313064;28;20300;-69
2020/12/01 09:52:52;;;;;;;44.30;5.60;;;;;;;;;;10310572;28;20217;-68
2020/12/01 09:58:01;;;;;;;44.60;5.20;;;;;;;;;;10312245;28;20229;-68
2020/12/01 10:08:43;;;;;;;39.83;4.73;;;;;;;;;;10259681;28;20222;-68
2020/12/01 10:13:52;;;;;;;29.77;4.10;;;;;;;;;;10305005;28;20296;-68
2020/12/01 10:35:19;;;;;;;37.53;4.37;;;;;;;;;;10477127;28;20248;-67
2020/12/01 10:40:24;;;;;;;38.93;4.97;;;;;;;;;;10474544;28;20230;-65
2020/12/01 10:45:27;;;;;;;43.57;4.60;;;;;;;;;;10480131;28;20199;-66
2020/12/01 10:50:30;;;;;;;25.60;3.80;;;;;;;;;;10477217;28;20203;-66
2020/12/01 10:55:33;;;;;;;35.37;4.20;;;;;;;;;;10472035;28;20199;-65
2020/12/01 11:00:35;;;;;;;33.37;4.07;;;;;;;;;;10479743;28;20237;-66
2020/12/01 11:05:37;;;;;;;39.50;4.40;;;;;;;;;;10470154;28;20222;-66
2020/12/01 11:10:41;;;;;;;39.57;4.67;;;;;;;;;;10479587;28;20929;-66
2020/12/01 11:15:42;;;;;;;28.13;4.60;;;;;;;;;;10476369;28;20740;-66
2020/12/01 11:20:44;;;;;;;29.20;4.37;;;;;;;;;;10472056;28;20243;-66
2020/12/01 11:25:47;;;;;;;35.70;4.70;;;;;;;;;;10469716;28;20203;-66
2020/12/01 11:30:49;;;;;;;37.03;4.30;;;;;;;;;;10479387;28;20238;-66
2020/12/01 11:35:50;;;;;;;28.63;3.70;;;;;;;;;;10444631;28;20208;-67
2020/12/01 11:40:53;;;;;;;26.27;3.47;;;;;;;;;;10449567;28;20262;-66
2020/12/01 11:45:54;;;;;;;26.83;3.70;;;;;;;;;;10441221;28;20652;-67
2020/12/01 11:50:56;;;;;;;27.90;3.70;;;;;;;;;;10444997;28;20208;-67
2020/12/01 11:55:59;;;;;;;29.43;4.67;;;;;;;;;;10444308;28;20215;-66
2020/12/01 12:01:01;;;;;;;29.43;3.70;;;;;;;;;;10449408;28;20235;-67
2020/12/01 12:06:03;;;;;;;31.63;3.90;;;;;;;;;;10443257;28;20210;-66
2020/12/01 12:11:05;;;;;;;27.77;4.10;;;;;;;;;;10445872;28;20233;-66
2020/12/01 12:16:07;;;;;;;30.73;3.67;;;;;;;;;;10451033;28;20203;-67
2020/12/01 12:21:09;;;;;;;27.87;4.90;;;;;;;;;;10444595;28;20644;-81
2020/12/01 12:26:12;;;;;;;27.07;3.90;;;;;;;;;;10459062;28;20218;-81
2020/12/01 12:31:15;;;;;;;31.63;3.93;;;;;;;;;;10443654;28;20230;-78
2020/12/01 12:36:17;;;;;;;26.47;3.93;;;;;;;;;;10440791;28;20213;-79
2020/12/01 12:41:19;;;;;;;23.37;3.53;;;;;;;;;;10442491;28;20231;-77
2020/12/01 12:46:21;;;;;;;25.03;3.10;;;;;;;;;;10452940;28;20222;-74
2020/12/01 12:51:23;;;;;;;26.10;3.47;;;;;;;;;;10440893;28;20267;-71
2020/12/01 12:56:26;;;;;;;25.87;2.90;;;;;;;;;;10443521;28;20204;-86
2020/12/01 13:01:29;;;;;;;22.37;3.87;;;;;;;;;;9977075;28;21202;-78
2020/12/01 13:06:31;;;;;;;31.30;3.53;;;;;;;;;;9702622;28;21028;-78
2020/12/01 13:11:40;;;;;;;36.47;4.27;;;;;;;;;;9709426;28;20757;-83
2020/12/01 13:16:46;;;;;;;24.93;3.70;;;;;;;;;;9719475;28;20623;-79
2020/12/01 13:21:50;;;;;;;28.73;4.03;;;;;;;;;;9703947;28;20618;-78
2020/12/01 13:26:56;;;;;;;28.37;3.47;;;;;;;;;;9704004;28;20674;-78
2020/12/01 13:31:58;;;;;;;34.70;4.67;;;;;;;;;;9715485;28;20615;-78
2020/12/01 13:37:03;;;;;;;39.83;3.83;;;;;;;;;;9693738;28;20949;-79
2020/12/01 13:42:19;;;;;;;25.63;3.70;;;;;;;;;;9698486;28;20662;-78
2020/12/01 13:47:38;;;;;;;25.33;3.57;;;;;;;;;;9705518;28;20722;-78
2020/12/01 13:52:54;;;;;;;27.20;3.70;;;;;;;;;;9707209;28;20754;-78
2020/12/01 13:57:57;;;;;;;25.80;3.10;;;;;;;;;;9693939;28;20594;-78
2020/12/01 14:03:00;;;;;;;18.83;4.03;;;;;;;;;;9693780;28;21175;-78
2020/12/01 14:08:02;;;;;;;27.77;3.63;;;;;;;;;;9696823;28;20642;-77
2020/12/01 14:13:10;;;;;;;22.67;3.27;;;;;;;;;;9686923;28;21212;-75
2020/12/01 14:18:13;;;;;;;34.60;3.93;;;;;;;;;;10087124;28;20211;-76
2020/12/01 14:23:15;;;;;;;27.77;3.77;;;;;;;;;;10435050;28;20711;-76
2020/12/01 14:28:17;;;;;;;29.00;3.90;;;;;;;;;;10435862;28;20224;-76
2020/12/01 14:33:19;;;;;;;28.23;3.77;;;;;;;;;;10435375;28;20210;-76
2020/12/01 14:38:21;;;;;;;29.33;5.13;;;;;;;;;;10442367;28;20215;-77
2020/12/01 14:43:24;;;;;;;26.83;3.70;;;;;;;;;;10435213;28;20651;-76
2020/12/01 14:48:43;;;;;;;24.73;3.73;;;;;;;;;;10442903;28;20251;-79
2020/12/01 14:54:28;;;;;;;;;;;;;;;;;;;;;
2020/12/01 15:00:10;;;;;;;29.93;3.70;;;;;;;;;;9701181;28;20760;-76
2020/12/01 15:05:28;;;;;;;32.37;4.27;;;;;;;;;;9694851;28;20568;-78
2020/12/01 15:10:41;;;;;;;37.40;4.13;;;;;;;;;;9703018;28;21012;-75
2020/12/01 15:15:45;;;;;;;28.10;3.90;;;;;;;;;;10134633;28;20659;-78
2020/12/01 15:20:47;;;;;;;30.43;3.93;;;;;;;;;;10439749;28;20239;-79
2020/12/01 15:25:50;;;;;;;28.53;4.30;;;;;;;;;;10433718;28;20231;-77
2020/12/01 15:30:53;;;;;;;33.30;5.70;;;;;;;;;;10447909;28;20234;-79
2020/12/01 15:36:00;;;;;;;23.10;3.83;;;;;;;;;;10443758;28;20222;-79
2020/12/01 15:41:03;;;;;;;20.67;3.33;;;;;;;;;;10444484;28;20338;-78
2020/12/01 15:46:07;;;;;;;17.27;3.30;;;;;;;;;;10442337;28;20204;-78
2020/12/01 15:51:20;;;;;;;22.50;3.33;;;;;;;;;;10445306;28;20220;-78
2020/12/01 15:56:30;;;;;;;23.97;3.20;;;;;;;;;;10438673;28;20211;-79
2020/12/01 16:01:43;;;;;;;16.57;3.27;;;;;;;;;;10445428;28;20236;-79
2020/12/01 16:07:05;;;;;;;18.47;3.43;;;;;;;;;;10440863;28;20231;-78
2020/12/01 16:12:14;;;;;;;13.00;2.90;;;;;;;;;;10441735;28;20200;-78
2020/12/01 16:17:20;;;;;;;11.53;2.30;;;;;;;;;;10442888;28;20203;-80
2020/12/01 16:22:23;;;;;;;10.60;2.27;;;;;;;;;;10440103;28;20613;-79
2020/12/01 16:27:30;;;;;;;12.03;2.87;;;;;;;;;;10437599;28;20725;-78
2020/12/01 16:32:35;;;;;;;7.47;2.30;;;;;;;;;;10441590;28;20208;-78
2020/12/01 16:37:49;;;;;;;12.60;2.10;;;;;;;;;;10438553;28;20226;-78
2020/12/01 16:43:01;;;;;;;13.03;2.30;;;;;;;;;;10444571;28;20298;-79
2020/12/01 16:48:16;;;;;;;13.97;2.77;;;;;;;;;;10437733;28;20207;-78
2020/12/01 16:53:34;;;;;;;15.00;2.40;;;;;;;;;;10442495;28;20210;-78
2020/12/01 16:58:43;;;;;;;14.33;3.07;;;;;;;;;;10435719;28;20206;-77
2020/12/01 17:04:00;;;;;;;15.63;2.80;;;;;;;;;;10442106;28;20732;-78
2020/12/01 17:09:03;;;;;;;11.20;2.80;;;;;;;;;;10423421;28;20211;-78
2020/12/01 17:14:10;;;;;;;15.60;2.40;;;;;;;;;;10440354;28;20404;-78
2020/12/01 17:19:12;;;;;;;12.00;2.90;;;;;;;;;;10438930;28;20214;-77
2020/12/01 17:24:17;;;;;;;13.47;2.70;;;;;;;;;;10435257;28;20710;-77
2020/12/01 17:29:20;;;;;;;12.53;2.20;;;;;;;;;;10444547;28;20319;-78
2020/12/01 17:34:35;;;;;;;13.10;2.60;;;;;;;;;;10438459;28;20214;-78
2020/12/01 17:39:41;;;;;;;14.07;2.40;;;;;;;;;;10436347;28;20705;-78
2020/12/01 17:44:52;;;;;;;16.47;2.87;;;;;;;;;;10434925;28;20234;-78
2020/12/01 17:49:57;;;;;;;11.90;2.60;;;;;;;;;;10439828;28;20569;-80
2020/12/01 17:54:59;;;;;;;16.57;4.50;;;;;;;;;;10432866;28;20200;-78
2020/12/01 18:00:01;;;;;;;14.50;3.97;;;;;;;;;;10434077;28;20218;-77
2020/12/01 18:05:05;;;;;;;11.60;3.63;;;;;;;;;;10432489;28;20239;-78
2020/12/01 18:10:09;;;;;;;14.70;3.80;;;;;;;;;;10429104;28;20199;-80
2020/12/01 18:15:18;;;;;;;20.93;3.03;;;;;;;;;;10432108;28;20294;-77
2020/12/01 18:20:26;;;;;;;13.50;3.20;;;;;;;;;;10433153;28;20239;-78
2020/12/01 18:25:35;;;;;;;15.50;4.30;;;;;;;;;;10429987;28;20235;-78
2020/12/01 18:30:38;;;;;;;13.30;3.80;;;;;;;;;;10436372;28;20651;-76
2020/12/01 18:35:41;;;;;;;10.93;3.20;;;;;;;;;;10430433;28;20223;-80
2020/12/01 18:40:44;;;;;;;9.17;2.93;;;;;;;;;;10432349;28;20277;-77
2020/12/01 18:45:47;;;;;;;11.93;3.47;;;;;;;;;;10436893;28;20219;-79
2020/12/01 18:50:49;;;;;;;13.53;3.80;;;;;;;;;;10441203;28;20225;-77
2020/12/01 18:55:55;;;;;;;9.73;3.30;;;;;;;;;;10439680;28;20212;-77
2020/12/01 19:00:58;;;;;;;13.17;3.77;;;;;;;;;;10440160;28;20234;-78
2020/12/01 19:06:00;;;;;;;20.17;3.57;;;;;;;;;;10440468;28;20207;-77
2020/12/01 19:11:04;;;;;;;15.67;3.97;;;;;;;;;;10437195;28;20583;-78
2020/12/01 19:16:06;;;;;;;24.00;4.20;;;;;;;;;;10443169;28;20601;-77
2020/12/01 19:21:08;;;;;;;15.77;3.67;;;;;;;;;;10440610;28;20231;-78
2020/12/01 19:26:16;;;;;;;11.30;3.70;;;;;;;;;;10436613;28;22237;-78
2020/12/01 19:31:17;;;;;;;11.77;3.80;;;;;;;;;;10436568;28;20219;-77
2020/12/01 19:36:19;;;;;;;19.83;5.13;;;;;;;;;;10439021;28;20223;-77
2020/12/01 19:41:22;;;;;;;12.30;4.03;;;;;;;;;;10435794;28;20231;-77
2020/12/01 19:46:24;;;;;;;12.73;5.20;;;;;;;;;;10440624;28;20230;-77
2020/12/01 19:51:25;;;;;;;15.50;5.27;;;;;;;;;;10437551;28;20208;-77
2020/12/01 19:56:29;;;;;;;11.83;5.30;;;;;;;;;;10434852;28;20223;-77
2020/12/01 20:01:31;;;;;;;12.90;5.10;;;;;;;;;;10432510;28;20247;-77
2020/12/01 20:06:36;;;;;;;16.57;6.10;;;;;;;;;;10440015;28;20206;-78
2020/12/01 20:11:39;;;;;;;13.93;5.60;;;;;;;;;;10437862;28;20218;-77
2020/12/01 20:16:43;;;;;;;21.40;6.00;;;;;;;;;;10438258;28;20312;-78
2020/12/01 20:21:45;;;;;;;18.00;5.97;;;;;;;;;;10436590;28;20244;-77
2020/12/01 20:26:48;;;;;;;14.20;6.17;;;;;;;;;;10436975;28;20839;-77
2020/12/01 20:31:50;;;;;;;17.47;5.53;;;;;;;;;;10437577;28;20223;-77
2020/12/01 20:37:19;;;;;;;10.67;6.20;;;;;;;;;;10438381;28;20224;-77
2020/12/01 20:42:24;;;;;;;13.83;6.80;;;;;;;;;;10430981;28;20270;-78
2020/12/01 20:47:27;;;;;;;18.03;7.20;;;;;;;;;;10437095;28;20210;-77
2020/12/01 20:52:29;;;;;;;13.43;6.80;;;;;;;;;;10435445;28;20557;-76
2020/12/01 20:57:31;;;;;;;17.80;7.03;;;;;;;;;;10436553;28;20588;-79
2020/12/01 21:02:33;;;;;;;14.60;7.23;;;;;;;;;;10438633;28;20228;-76
2020/12/01 21:07:37;;;;;;;17.63;7.27;;;;;;;;;;10436943;28;20215;-76
2020/12/01 21:12:43;;;;;;;15.07;8.00;;;;;;;;;;10431425;28;20230;-78
2020/12/01 21:17:47;;;;;;;14.70;7.20;;;;;;;;;;10437524;28;20243;-77
2020/12/01 21:22:49;;;;;;;16.33;7.13;;;;;;;;;;10433596;28;20711;-76
2020/12/01 21:27:57;;;;;;;16.93;7.33;;;;;;;;;;10434476;28;21242;-75
2020/12/01 21:33:01;;;;;;;15.53;7.43;;;;;;;;;;10436678;28;20257;-76
2020/12/01 21:38:03;;;;;;;15.03;7.10;;;;;;;;;;10433391;28;20207;-77
2020/12/01 21:43:18;;;;;;;12.33;7.03;;;;;;;;;;10437001;28;20270;-77
2020/12/01 21:48:20;;;;;;;11.97;7.10;;;;;;;;;;10436249;28;20204;-77
2020/12/01 21:53:26;;;;;;;14.10;7.23;;;;;;;;;;10432963;28;20214;-78
2020/12/01 21:58:42;;;;;;;14.83;7.57;;;;;;;;;;10432319;28;20218;-77
2020/12/01 22:03:55;;;;;;;16.47;8.20;;;;;;;;;;10433630;28;20721;-79
2020/12/01 22:09:03;;;;;;;12.20;7.30;;;;;;;;;;10436578;28;20668;-79
2020/12/01 22:14:10;;;;;;;16.47;8.27;;;;;;;;;;10439373;28;20204;-77
2020/12/01 22:19:14;;;;;;;13.20;7.47;;;;;;;;;;10434019;28;20580;-78
2020/12/01 22:24:25;;;;;;;19.90;8.27;;;;;;;;;;10437607;28;20235;-78
2020/12/01 22:29:35;;;;;;;12.47;7.70;;;;;;;;;;10431854;28;20571;-77
2020/12/01 22:34:52;;;;;;;13.70;7.67;;;;;;;;;;10437156;28;20208;-78
2020/12/01 22:39:55;;;;;;;15.63;8.87;;;;;;;;;;10432647;28;20227;-77
2020/12/01 22:45:12;;;;;;;18.17;9.17;;;;;;;;;;10446609;28;20757;-77
2020/12/01 22:50:23;;;;;;;15.30;9.00;;;;;;;;;;10435687;28;20579;-78
2020/12/01 22:55:32;;;;;;;17.60;8.53;;;;;;;;;;10436865;28;20543;-78
2020/12/01 23:00:37;;;;;;;15.60;8.37;;;;;;;;;;10436318;28;20625;-77
2020/12/01 23:05:39;;;;;;;18.67;9.60;;;;;;;;;;10439563;28;20313;-78
2020/12/01 23:10:44;;;;;;;15.80;9.23;;;;;;;;;;10432600;28;20211;-78
2020/12/01 23:15:47;;;;;;;16.40;9.30;;;;;;;;;;10437798;28;20203;-79
2020/12/01 23:20:48;;;;;;;18.30;9.40;;;;;;;;;;10431181;28;20232;-78
2020/12/01 23:25:55;;;;;;;16.47;9.10;;;;;;;;;;10434137;28;20242;-78
2020/12/01 23:30:57;;;;;;;18.37;9.53;;;;;;;;;;10441642;28;20211;-77
2020/12/01 23:36:01;;;;;;;16.50;9.17;;;;;;;;;;10446749;28;20210;-77
2020/12/01 23:41:06;;;;;;;18.40;9.30;;;;;;;;;;10438367;28;20203;-78
2020/12/01 23:46:12;;;;;;;16.33;8.67;;;;;;;;;;10444451;28;20243;-77
2020/12/01 23:51:18;;;;;;;17.40;9.33;;;;;;;;;;10441287;28;20210;-77
2020/12/01 23:56:24;;;;;;;18.50;9.33;;;;;;;;;;10444369;28;20219;-77
